sensor_id;sensor_type;location;lat;lon;timestamp;temperature;humidity
4908;DHT22;64375;51.540;7.364;2023-02-25T00:00:09;13.00;99.90
4908;DHT22;64375;51.540;7.364;2023-02-25T00:02:43;13.00;99.90
4908;DHT22;64375;51.540;7.364;2023-02-25T00:05:14;13.10;99.90
4908;DHT22;64375;51.540;7.364;2023-02-25T00:07:43;13.20;99.90
4908;DHT22;64375;51.540;7.364;2023-02-25T00:10:15;13.00;97.00
4908;DHT22;64375;51.540;7.364;2023-02-25T00:12:43;13.10;98.10
4908;DHT22;64375;51.540;7.364;2023-02-25T00:15:20;13.10;99.90
4908;DHT22;64375;51.540;7.364;2023-02-25T00:17:50;12.80;97.50
4908;DHT22;64375;51.540;7.364;2023-02-25T00:20:18;13.00;99.90
4908;DHT22;64375;51.540;7.364;2023-02-25T00:22:48;13.10;99.90
4908;DHT22;64375;51.540;7.364;2023-02-25T00:25:23;13.10;99.90
4908;DHT22;64375;51.540;7.364;2023-02-25T00:27:51;12.90;99.20
4908;DHT22;64375;51.540;7.364;2023-02-25T00:30:19;13.00;99.90
4908;DHT22;64375;51.540;7.364;2023-02-25T00:32:48;13.10;99.90
4908;DHT22;64375;51.540;7.364;2023-02-25T00:35:22;13.10;99.90
4908;DHT22;64375;51.540;7.364;2023-02-25T00:37:50;13.10;99.30
4908;DHT22;64375;51.540;7.364;2023-02-25T00:40:31;13.00;99.30
4908;DHT22;64375;51.540;7.364;2023-02-25T00:42:58;13.00;99.20
4908;DHT22;64375;51.540;7.364;2023-02-25T00:45:26;13.10;99.90
4908;DHT22;64375;51.540;7.364;2023-02-25T00:47:57;12.90;98.60
4908;DHT22;64375;51.540;7.364;2023-02-25T00:50:28;12.90;99.00
4908;DHT22;64375;51.540;7.364;2023-02-25T00:52:56;12.90;99.70
4908;DHT22;64375;51.540;7.364;2023-02-25T00:55:27;12.90;99.90
4908;DHT22;64375;51.540;7.364;2023-02-25T00:58:03;12.90;99.90
4908;DHT22;64375;51.540;7.364;2023-02-25T01:00:37;12.90;96.60
4908;DHT22;64375;51.540;7.364;2023-02-25T01:03:20;12.70;98.70
4908;DHT22;64375;51.540;7.364;2023-02-25T01:05:51;12.60;98.40
4908;DHT22;64375;51.540;7.364;2023-02-25T01:08:19;12.40;94.30
4908;DHT22;64375;51.540;7.364;2023-02-25T01:10:50;11.90;94.10
4908;DHT22;64375;51.540;7.364;2023-02-25T01:13:34;11.90;98.50
4908;DHT22;64375;51.540;7.364;2023-02-25T01:16:17;12.20;99.90
4908;DHT22;64375;51.540;7.364;2023-02-25T01:18:52;12.10;97.50
4908;DHT22;64375;51.540;7.364;2023-02-25T01:21:24;12.10;97.10
4908;DHT22;64375;51.540;7.364;2023-02-25T01:24:03;12.20;99.90
4908;DHT22;64375;51.540;7.364;2023-02-25T01:26:34;12.50;99.90
4908;DHT22;64375;51.540;7.364;2023-02-25T01:29:07;12.50;99.00
4908;DHT22;64375;51.540;7.364;2023-02-25T01:31:38;12.40;98.10
4908;DHT22;64375;51.540;7.364;2023-02-25T01:34:09;12.50;99.80
4908;DHT22;64375;51.540;7.364;2023-02-25T01:36:37;12.70;99.90
4908;DHT22;64375;51.540;7.364;2023-02-25T01:39:05;12.80;99.70
4908;DHT22;64375;51.540;7.364;2023-02-25T01:41:36;12.70;98.60
4908;DHT22;64375;51.540;7.364;2023-02-25T01:44:10;12.60;97.40
4908;DHT22;64375;51.540;7.364;2023-02-25T01:46:43;12.40;97.60
4908;DHT22;64375;51.540;7.364;2023-02-25T01:49:14;12.30;97.90
4908;DHT22;64375;51.540;7.364;2023-02-25T01:51:47;12.40;99.90
4908;DHT22;64375;51.540;7.364;2023-02-25T01:54:16;12.70;98.90
4908;DHT22;64375;51.540;7.364;2023-02-25T01:56:52;12.60;99.30
4908;DHT22;64375;51.540;7.364;2023-02-25T01:59:25;12.60;98.60
4908;DHT22;64375;51.540;7.364;2023-02-25T02:02:00;12.40;97.60
4908;DHT22;64375;51.540;7.364;2023-02-25T02:04:29;12.30;98.30
4908;DHT22;64375;51.540;7.364;2023-02-25T02:06:58;12.20;99.00
4908;DHT22;64375;51.540;7.364;2023-02-25T02:09:28;12.20;98.80
4908;DHT22;64375;51.540;7.364;2023-02-25T02:12:04;12.20;99.10
4908;DHT22;64375;51.540;7.364;2023-02-25T02:14:49;12.20;98.00
4908;DHT22;64375;51.540;7.364;2023-02-25T02:17:24;12.00;97.00
4908;DHT22;64375;51.540;7.364;2023-02-25T02:20:10;12.00;98.90
4908;DHT22;64375;51.540;7.364;2023-02-25T02:22:51;12.10;99.90
4908;DHT22;64375;51.540;7.364;2023-02-25T02:25:50;11.80;98.00
4908;DHT22;64375;51.540;7.364;2023-02-25T02:31:55;11.30;97.20
4908;DHT22;64375;51.540;7.364;2023-02-25T02:34:35;11.30;99.40
4908;DHT22;64375;51.540;7.364;2023-02-25T02:37:31;11.50;99.90
4908;DHT22;64375;51.540;7.364;2023-02-25T02:40:09;11.70;99.90
4908;DHT22;64375;51.540;7.364;2023-02-25T02:42:50;11.90;99.90
4908;DHT22;64375;51.540;7.364;2023-02-25T02:45:22;11.80;98.20
4908;DHT22;64375;51.540;7.364;2023-02-25T02:47:59;11.80;98.90
4908;DHT22;64375;51.540;7.364;2023-02-25T02:50:32;11.60;97.70
4908;DHT22;64375;51.540;7.364;2023-02-25T02:53:04;11.30;97.70
4908;DHT22;64375;51.540;7.364;2023-02-25T02:55:38;11.30;98.20
4908;DHT22;64375;51.540;7.364;2023-02-25T02:58:12;11.50;99.90
4908;DHT22;64375;51.540;7.364;2023-02-25T03:00:53;11.50;99.90
4908;DHT22;64375;51.540;7.364;2023-02-25T03:03:28;11.50;99.10
4908;DHT22;64375;51.540;7.364;2023-02-25T03:06:06;11.50;99.80
4908;DHT22;64375;51.540;7.364;2023-02-25T03:08:40;11.50;97.30
4908;DHT22;64375;51.540;7.364;2023-02-25T03:11:10;11.70;99.90
4908;DHT22;64375;51.540;7.364;2023-02-25T03:13:41;11.80;99.90
4908;DHT22;64375;51.540;7.364;2023-02-25T03:16:13;11.90;99.80
4908;DHT22;64375;51.540;7.364;2023-02-25T03:18:50;12.00;99.90
4908;DHT22;64375;51.540;7.364;2023-02-25T03:21:22;12.20;99.90
4908;DHT22;64375;51.540;7.364;2023-02-25T03:23:59;12.10;99.90
4908;DHT22;64375;51.540;7.364;2023-02-25T03:26:32;12.20;99.90
4908;DHT22;64375;51.540;7.364;2023-02-25T03:29:00;12.10;99.90
4908;DHT22;64375;51.540;7.364;2023-02-25T03:31:31;12.20;98.40
4908;DHT22;64375;51.540;7.364;2023-02-25T03:34:07;12.00;96.40
4908;DHT22;64375;51.540;7.364;2023-02-25T03:36:41;11.80;95.90
4908;DHT22;64375;51.540;7.364;2023-02-25T03:39:17;11.80;99.90
4908;DHT22;64375;51.540;7.364;2023-02-25T03:41:51;11.70;97.40
4908;DHT22;64375;51.540;7.364;2023-02-25T03:44:30;11.70;97.30
4908;DHT22;64375;51.540;7.364;2023-02-25T03:47:08;11.90;99.90
4908;DHT22;64375;51.540;7.364;2023-02-25T03:49:43;11.90;99.60
4908;DHT22;64375;51.540;7.364;2023-02-25T03:52:18;11.90;99.90
4908;DHT22;64375;51.540;7.364;2023-02-25T03:54:49;12.10;99.90
4908;DHT22;64375;51.540;7.364;2023-02-25T03:57:18;12.00;98.70
4908;DHT22;64375;51.540;7.364;2023-02-25T03:59:46;12.30;99.90
4908;DHT22;64375;51.540;7.364;2023-02-25T04:02:14;12.30;99.40
4908;DHT22;64375;51.540;7.364;2023-02-25T04:04:50;12.50;99.90
4908;DHT22;64375;51.540;7.364;2023-02-25T04:07:18;12.50;99.40
4908;DHT22;64375;51.540;7.364;2023-02-25T04:09:58;12.60;99.90
4908;DHT22;64375;51.540;7.364;2023-02-25T04:12:26;12.60;99.90
4908;DHT22;64375;51.540;7.364;2023-02-25T04:14:57;12.30;96.60
4908;DHT22;64375;51.540;7.364;2023-02-25T04:17:28;12.00;96.90
4908;DHT22;64375;51.540;7.364;2023-02-25T04:19:57;12.20;99.90
4908;DHT22;64375;51.540;7.364;2023-02-25T04:22:28;12.40;99.90
4908;DHT22;64375;51.540;7.364;2023-02-25T04:25:05;12.30;97.90
4908;DHT22;64375;51.540;7.364;2023-02-25T04:27:36;12.30;98.50
4908;DHT22;64375;51.540;7.364;2023-02-25T04:30:13;12.00;98.80
4908;DHT22;64375;51.540;7.364;2023-02-25T04:32:41;12.30;99.90
4908;DHT22;64375;51.540;7.364;2023-02-25T04:35:15;12.50;99.90
4908;DHT22;64375;51.540;7.364;2023-02-25T04:37:43;12.40;99.10
4908;DHT22;64375;51.540;7.364;2023-02-25T04:40:20;12.30;98.90
4908;DHT22;64375;51.540;7.364;2023-02-25T04:42:48;12.10;98.90
4908;DHT22;64375;51.540;7.364;2023-02-25T04:45:22;12.40;99.90
4908;DHT22;64375;51.540;7.364;2023-02-25T04:48:01;12.40;97.10
4908;DHT22;64375;51.540;7.364;2023-02-25T04:50:30;11.90;93.30
4908;DHT22;64375;51.540;7.364;2023-02-25T04:52:59;11.90;98.50
4908;DHT22;64375;51.540;7.364;2023-02-25T04:55:28;11.90;97.80
4908;DHT22;64375;51.540;7.364;2023-02-25T04:57:58;12.00;99.90
4908;DHT22;64375;51.540;7.364;2023-02-25T05:00:31;12.10;99.90
4908;DHT22;64375;51.540;7.364;2023-02-25T05:03:30;12.30;99.90
4908;DHT22;64375;51.540;7.364;2023-02-25T05:06:00;12.40;98.00
4908;DHT22;64375;51.540;7.364;2023-02-25T05:08:28;12.20;97.30
4908;DHT22;64375;51.540;7.364;2023-02-25T05:11:10;12.10;98.60
4908;DHT22;64375;51.540;7.364;2023-02-25T05:13:38;12.20;99.90
4908;DHT22;64375;51.540;7.364;2023-02-25T05:16:10;12.10;99.30
4908;DHT22;64375;51.540;7.364;2023-02-25T05:18:39;12.30;99.90
4908;DHT22;64375;51.540;7.364;2023-02-25T05:21:09;12.30;99.30
4908;DHT22;64375;51.540;7.364;2023-02-25T05:23:40;12.20;99.40
4908;DHT22;64375;51.540;7.364;2023-02-25T05:26:10;12.30;99.90
4908;DHT22;64375;51.540;7.364;2023-02-25T05:28:41;12.40;98.20
4908;DHT22;64375;51.540;7.364;2023-02-25T05:31:10;12.30;98.70
4908;DHT22;64375;51.540;7.364;2023-02-25T05:33:39;12.20;99.30
4908;DHT22;64375;51.540;7.364;2023-02-25T05:36:09;12.20;99.90
4908;DHT22;64375;51.540;7.364;2023-02-25T05:38:47;12.30;99.90
4908;DHT22;64375;51.540;7.364;2023-02-25T05:41:18;12.30;98.40
4908;DHT22;64375;51.540;7.364;2023-02-25T05:43:46;12.20;99.50
4908;DHT22;64375;51.540;7.364;2023-02-25T05:46:17;12.10;96.20
4908;DHT22;64375;51.540;7.364;2023-02-25T05:48:45;12.20;99.90
4908;DHT22;64375;51.540;7.364;2023-02-25T05:51:17;12.20;96.90
4908;DHT22;64375;51.540;7.364;2023-02-25T05:53:49;12.00;96.30
4908;DHT22;64375;51.540;7.364;2023-02-25T05:56:21;12.10;99.40
4908;DHT22;64375;51.540;7.364;2023-02-25T05:58:57;12.20;99.90
4908;DHT22;64375;51.540;7.364;2023-02-25T06:01:27;12.30;99.90
4908;DHT22;64375;51.540;7.364;2023-02-25T06:03:57;12.00;95.20
4908;DHT22;64375;51.540;7.364;2023-02-25T06:06:42;12.20;99.10
4908;DHT22;64375;51.540;7.364;2023-02-25T06:09:19;12.30;99.60
4908;DHT22;64375;51.540;7.364;2023-02-25T06:11:48;12.40;98.90
4908;DHT22;64375;51.540;7.364;2023-02-25T06:14:19;12.40;95.40
4908;DHT22;64375;51.540;7.364;2023-02-25T06:16:47;12.30;99.20
4908;DHT22;64375;51.540;7.364;2023-02-25T06:19:16;12.50;98.60
4908;DHT22;64375;51.540;7.364;2023-02-25T06:21:54;12.40;96.00
4908;DHT22;64375;51.540;7.364;2023-02-25T06:24:22;12.10;93.50
4908;DHT22;64375;51.540;7.364;2023-02-25T06:26:51;12.20;99.90
4908;DHT22;64375;51.540;7.364;2023-02-25T06:29:21;12.20;96.50
4908;DHT22;64375;51.540;7.364;2023-02-25T06:31:49;12.30;98.70
4908;DHT22;64375;51.540;7.364;2023-02-25T06:34:20;12.40;99.40
4908;DHT22;64375;51.540;7.364;2023-02-25T06:36:51;12.30;98.80
4908;DHT22;64375;51.540;7.364;2023-02-25T06:39:23;12.40;99.50
4908;DHT22;64375;51.540;7.364;2023-02-25T06:41:51;12.30;96.50
4908;DHT22;64375;51.540;7.364;2023-02-25T06:44:19;12.30;99.30
4908;DHT22;64375;51.540;7.364;2023-02-25T06:46:49;12.30;99.20
4908;DHT22;64375;51.540;7.364;2023-02-25T06:49:20;12.20;96.50
4908;DHT22;64375;51.540;7.364;2023-02-25T06:51:48;12.30;99.10
4908;DHT22;64375;51.540;7.364;2023-02-25T06:54:20;12.40;99.90
4908;DHT22;64375;51.540;7.364;2023-02-25T06:56:48;12.30;97.40
4908;DHT22;64375;51.540;7.364;2023-02-25T06:59:18;12.50;99.80
4908;DHT22;64375;51.540;7.364;2023-02-25T07:01:46;12.70;99.60
4908;DHT22;64375;51.540;7.364;2023-02-25T07:04:15;12.10;95.90
4908;DHT22;64375;51.540;7.364;2023-02-25T07:06:46;12.20;97.50
4908;DHT22;64375;51.540;7.364;2023-02-25T07:09:17;11.70;93.30
4908;DHT22;64375;51.540;7.364;2023-02-25T07:11:46;11.50;93.10
4908;DHT22;64375;51.540;7.364;2023-02-25T07:14:14;11.60;99.50
4908;DHT22;64375;51.540;7.364;2023-02-25T07:16:42;11.60;98.00
4908;DHT22;64375;51.540;7.364;2023-02-25T07:19:10;11.30;94.20
4908;DHT22;64375;51.540;7.364;2023-02-25T07:21:42;11.20;94.70
4908;DHT22;64375;51.540;7.364;2023-02-25T07:24:11;11.60;99.90
4908;DHT22;64375;51.540;7.364;2023-02-25T07:26:47;11.70;95.60
4908;DHT22;64375;51.540;7.364;2023-02-25T07:29:15;11.30;92.30
4908;DHT22;64375;51.540;7.364;2023-02-25T07:31:42;11.00;94.10
4908;DHT22;64375;51.540;7.364;2023-02-25T07:34:11;10.70;93.50
4908;DHT22;64375;51.540;7.364;2023-02-25T07:36:42;10.60;95.50
4908;DHT22;64375;51.540;7.364;2023-02-25T07:39:13;10.50;93.70
4908;DHT22;64375;51.540;7.364;2023-02-25T07:41:43;10.20;94.40
4908;DHT22;64375;51.540;7.364;2023-02-25T07:44:33;10.20;97.10
4908;DHT22;64375;51.540;7.364;2023-02-25T07:47:01;10.20;93.90
4908;DHT22;64375;51.540;7.364;2023-02-25T07:49:35;9.90;98.30
4908;DHT22;64375;51.540;7.364;2023-02-25T07:52:02;9.80;95.30
4908;DHT22;64375;51.540;7.364;2023-02-25T07:54:30;9.80;96.40
4908;DHT22;64375;51.540;7.364;2023-02-25T07:56:58;9.80;96.80
4908;DHT22;64375;51.540;7.364;2023-02-25T07:59:26;9.70;94.50
4908;DHT22;64375;51.540;7.364;2023-02-25T08:01:55;9.60;95.60
4908;DHT22;64375;51.540;7.364;2023-02-25T08:04:23;9.60;96.40
4908;DHT22;64375;51.540;7.364;2023-02-25T08:06:51;9.20;95.30
4908;DHT22;64375;51.540;7.364;2023-02-25T08:09:19;9.60;97.40
4908;DHT22;64375;51.540;7.364;2023-02-25T08:11:50;9.50;97.20
4908;DHT22;64375;51.540;7.364;2023-02-25T08:14:18;9.50;96.20
4908;DHT22;64375;51.540;7.364;2023-02-25T08:16:50;9.40;95.80
4908;DHT22;64375;51.540;7.364;2023-02-25T08:19:23;9.30;95.80
4908;DHT22;64375;51.540;7.364;2023-02-25T08:21:51;9.10;98.60
4908;DHT22;64375;51.540;7.364;2023-02-25T08:24:20;9.40;99.90
4908;DHT22;64375;51.540;7.364;2023-02-25T08:26:51;9.60;99.10
4908;DHT22;64375;51.540;7.364;2023-02-25T08:29:23;10.00;99.00
4908;DHT22;64375;51.540;7.364;2023-02-25T08:31:51;9.80;98.40
4908;DHT22;64375;51.540;7.364;2023-02-25T08:34:23;10.00;99.60
4908;DHT22;64375;51.540;7.364;2023-02-25T08:36:51;10.00;96.90
4908;DHT22;64375;51.540;7.364;2023-02-25T08:39:19;9.80;95.90
4908;DHT22;64375;51.540;7.364;2023-02-25T08:41:49;9.90;96.90
4908;DHT22;64375;51.540;7.364;2023-02-25T08:44:17;10.00;96.20
4908;DHT22;64375;51.540;7.364;2023-02-25T08:46:58;9.80;95.70
4908;DHT22;64375;51.540;7.364;2023-02-25T08:49:33;9.30;95.40
4908;DHT22;64375;51.540;7.364;2023-02-25T08:52:00;8.80;96.10
4908;DHT22;64375;51.540;7.364;2023-02-25T08:54:30;9.00;97.80
4908;DHT22;64375;51.540;7.364;2023-02-25T08:57:01;9.00;97.60
4908;DHT22;64375;51.540;7.364;2023-02-25T08:59:29;8.90;96.10
4908;DHT22;64375;51.540;7.364;2023-02-25T09:02:01;8.90;96.10
4908;DHT22;64375;51.540;7.364;2023-02-25T09:04:34;9.10;99.60
4908;DHT22;64375;51.540;7.364;2023-02-25T09:07:02;9.10;96.80
4908;DHT22;64375;51.540;7.364;2023-02-25T09:09:30;9.40;98.70
4908;DHT22;64375;51.540;7.364;2023-02-25T09:12:02;9.00;95.10
4908;DHT22;64375;51.540;7.364;2023-02-25T09:14:33;8.60;95.60
4908;DHT22;64375;51.540;7.364;2023-02-25T09:17:02;8.40;96.30
4908;DHT22;64375;51.540;7.364;2023-02-25T09:19:30;8.00;97.10
4908;DHT22;64375;51.540;7.364;2023-02-25T09:22:03;7.40;97.40
4908;DHT22;64375;51.540;7.364;2023-02-25T09:24:31;7.00;98.90
4908;DHT22;64375;51.540;7.364;2023-02-25T09:27:00;7.10;99.90
4908;DHT22;64375;51.540;7.364;2023-02-25T09:29:39;7.30;99.90
4908;DHT22;64375;51.540;7.364;2023-02-25T09:32:16;7.70;99.90
4908;DHT22;64375;51.540;7.364;2023-02-25T09:34:47;7.90;99.90
4908;DHT22;64375;51.540;7.364;2023-02-25T09:37:17;8.10;99.90
4908;DHT22;64375;51.540;7.364;2023-02-25T09:39:52;8.20;99.30
4908;DHT22;64375;51.540;7.364;2023-02-25T09:42:42;7.90;98.20
4908;DHT22;64375;51.540;7.364;2023-02-25T09:45:22;7.60;98.40
4908;DHT22;64375;51.540;7.364;2023-02-25T09:47:55;7.30;99.20
4908;DHT22;64375;51.540;7.364;2023-02-25T09:50:33;7.20;99.40
4908;DHT22;64375;51.540;7.364;2023-02-25T09:53:17;7.40;99.80
4908;DHT22;64375;51.540;7.364;2023-02-25T09:55:49;7.50;99.90
4908;DHT22;64375;51.540;7.364;2023-02-25T09:58:24;7.50;98.60
4908;DHT22;64375;51.540;7.364;2023-02-25T10:01:03;7.40;98.50
4908;DHT22;64375;51.540;7.364;2023-02-25T10:03:44;7.40;98.70
4908;DHT22;64375;51.540;7.364;2023-02-25T10:06:23;7.50;98.60
4908;DHT22;64375;51.540;7.364;2023-02-25T10:09:02;7.50;98.20
4908;DHT22;64375;51.540;7.364;2023-02-25T10:11:42;7.60;99.60
4908;DHT22;64375;51.540;7.364;2023-02-25T10:17:23;6.80;99.60
4908;DHT22;64375;51.540;7.364;2023-02-25T10:20:05;5.90;99.90
4908;DHT22;64375;51.540;7.364;2023-02-25T10:22:52;5.70;99.90
4908;DHT22;64375;51.540;7.364;2023-02-25T10:25:28;5.70;99.90
4908;DHT22;64375;51.540;7.364;2023-02-25T10:28:02;6.30;99.90
4908;DHT22;64375;51.540;7.364;2023-02-25T10:30:44;6.70;99.90
4908;DHT22;64375;51.540;7.364;2023-02-25T10:33:18;7.10;99.90
4908;DHT22;64375;51.540;7.364;2023-02-25T10:35:58;7.40;99.90
4908;DHT22;64375;51.540;7.364;2023-02-25T10:38:49;7.50;99.90
4908;DHT22;64375;51.540;7.364;2023-02-25T10:41:23;7.50;99.90
4908;DHT22;64375;51.540;7.364;2023-02-25T10:43:55;7.80;99.90
4908;DHT22;64375;51.540;7.364;2023-02-25T10:46:29;7.70;99.30
4908;DHT22;64375;51.540;7.364;2023-02-25T10:49:11;7.20;97.60
4908;DHT22;64375;51.540;7.364;2023-02-25T10:52:14;7.00;98.10
4908;DHT22;64375;51.540;7.364;2023-02-25T10:54:51;6.60;97.10
4908;DHT22;64375;51.540;7.364;2023-02-25T10:57:25;6.40;97.30
4908;DHT22;64375;51.540;7.364;2023-02-25T10:59:59;6.60;97.20
4908;DHT22;64375;51.540;7.364;2023-02-25T11:02:30;6.40;97.40
4908;DHT22;64375;51.540;7.364;2023-02-25T11:05:05;6.20;96.90
4908;DHT22;64375;51.540;7.364;2023-02-25T11:07:40;6.40;97.20
4908;DHT22;64375;51.540;7.364;2023-02-25T11:10:13;6.70;98.60
4908;DHT22;64375;51.540;7.364;2023-02-25T11:12:44;7.00;97.80
4908;DHT22;64375;51.540;7.364;2023-02-25T11:15:25;6.90;95.90
4908;DHT22;64375;51.540;7.364;2023-02-25T11:18:18;6.80;96.10
4908;DHT22;64375;51.540;7.364;2023-02-25T11:20:49;6.60;96.00
4908;DHT22;64375;51.540;7.364;2023-02-25T11:23:21;6.60;96.30
4908;DHT22;64375;51.540;7.364;2023-02-25T11:25:51;6.70;97.70
4908;DHT22;64375;51.540;7.364;2023-02-25T11:28:33;6.90;97.70
4908;DHT22;64375;51.540;7.364;2023-02-25T11:31:09;7.20;96.60
4908;DHT22;64375;51.540;7.364;2023-02-25T11:33:41;7.00;95.00
4908;DHT22;64375;51.540;7.364;2023-02-25T11:36:22;7.00;95.40
4908;DHT22;64375;51.540;7.364;2023-02-25T11:39:05;7.00;94.60
4908;DHT22;64375;51.540;7.364;2023-02-25T11:41:36;7.00;93.90
4908;DHT22;64375;51.540;7.364;2023-02-25T11:44:26;6.80;93.40
4908;DHT22;64375;51.540;7.364;2023-02-25T11:47:05;6.90;94.80
4908;DHT22;64375;51.540;7.364;2023-02-25T11:50:11;6.80;93.00
4908;DHT22;64375;51.540;7.364;2023-02-25T11:52:44;6.70;92.80
4908;DHT22;64375;51.540;7.364;2023-02-25T11:55:35;6.70;93.80
4908;DHT22;64375;51.540;7.364;2023-02-25T11:58:18;6.60;93.10
4908;DHT22;64375;51.540;7.364;2023-02-25T12:00:57;6.50;93.40
4908;DHT22;64375;51.540;7.364;2023-02-25T12:03:54;6.50;93.50
4908;DHT22;64375;51.540;7.364;2023-02-25T12:06:37;6.50;93.30
4908;DHT22;64375;51.540;7.364;2023-02-25T12:09:42;6.60;93.00
4908;DHT22;64375;51.540;7.364;2023-02-25T12:12:29;6.70;92.00
4908;DHT22;64375;51.540;7.364;2023-02-25T12:15:56;6.40;89.50
4908;DHT22;64375;51.540;7.364;2023-02-25T12:22:19;6.40;87.90
4908;DHT22;64375;51.540;7.364;2023-02-25T12:25:04;6.40;86.70
4908;DHT22;64375;51.540;7.364;2023-02-25T12:27:50;6.60;85.50
4908;DHT22;64375;51.540;7.364;2023-02-25T12:30:47;6.80;85.20
4908;DHT22;64375;51.540;7.364;2023-02-25T12:33:44;6.60;82.90
4908;DHT22;64375;51.540;7.364;2023-02-25T12:36:41;6.60;82.40
4908;DHT22;64375;51.540;7.364;2023-02-25T12:39:46;6.80;84.30
4908;DHT22;64375;51.540;7.364;2023-02-25T12:42:29;6.90;81.80
4908;DHT22;64375;51.540;7.364;2023-02-25T12:48:02;6.40;81.60
4908;DHT22;64375;51.540;7.364;2023-02-25T12:50:54;6.30;78.70
4908;DHT22;64375;51.540;7.364;2023-02-25T12:53:32;6.30;81.60
4908;DHT22;64375;51.540;7.364;2023-02-25T12:56:38;6.20;80.80
4908;DHT22;64375;51.540;7.364;2023-02-25T12:59:40;6.40;82.10
4908;DHT22;64375;51.540;7.364;2023-02-25T13:02:33;6.80;82.90
4908;DHT22;64375;51.540;7.364;2023-02-25T13:05:30;6.60;82.60
4908;DHT22;64375;51.540;7.364;2023-02-25T13:08:47;6.20;80.60
4908;DHT22;64375;51.540;7.364;2023-02-25T13:11:29;6.20;82.80
4908;DHT22;64375;51.540;7.364;2023-02-25T13:14:38;6.20;79.90
4908;DHT22;64375;51.540;7.364;2023-02-25T13:21:00;6.00;81.00
4908;DHT22;64375;51.540;7.364;2023-02-25T13:23:53;6.30;80.50
4908;DHT22;64375;51.540;7.364;2023-02-25T13:26:35;6.20;79.60
4908;DHT22;64375;51.540;7.364;2023-02-25T13:29:22;6.00;77.50
4908;DHT22;64375;51.540;7.364;2023-02-25T13:32:00;6.10;77.30
4908;DHT22;64375;51.540;7.364;2023-02-25T13:34:36;6.10;74.70
4908;DHT22;64375;51.540;7.364;2023-02-25T13:37:36;6.10;77.20
4908;DHT22;64375;51.540;7.364;2023-02-25T13:40:24;6.20;79.20
4908;DHT22;64375;51.540;7.364;2023-02-25T13:43:16;6.20;76.50
4908;DHT22;64375;51.540;7.364;2023-02-25T13:49:34;6.30;74.50
4908;DHT22;64375;51.540;7.364;2023-02-25T13:52:35;6.00;70.00
4908;DHT22;64375;51.540;7.364;2023-02-25T13:55:35;6.20;70.00
4908;DHT22;64375;51.540;7.364;2023-02-25T13:58:26;6.10;71.20
4908;DHT22;64375;51.540;7.364;2023-02-25T14:01:33;6.10;68.60
4908;DHT22;64375;51.540;7.364;2023-02-25T14:07:34;5.90;69.90
4908;DHT22;64375;51.540;7.364;2023-02-25T14:10:38;6.10;69.40
4908;DHT22;64375;51.540;7.364;2023-02-25T14:13:31;6.00;71.00
4908;DHT22;64375;51.540;7.364;2023-02-25T14:16:13;6.00;69.60
4908;DHT22;64375;51.540;7.364;2023-02-25T14:22:16;6.00;69.60
4908;DHT22;64375;51.540;7.364;2023-02-25T14:24:55;5.90;70.00
4908;DHT22;64375;51.540;7.364;2023-02-25T14:27:32;5.80;71.50
4908;DHT22;64375;51.540;7.364;2023-02-25T14:30:17;5.60;71.00
4908;DHT22;64375;51.540;7.364;2023-02-25T14:36:36;5.50;67.00
4908;DHT22;64375;51.540;7.364;2023-02-25T14:39:20;5.50;64.30
4908;DHT22;64375;51.540;7.364;2023-02-25T14:42:11;5.30;65.20
4908;DHT22;64375;51.540;7.364;2023-02-25T14:44:45;5.30;66.20
4908;DHT22;64375;51.540;7.364;2023-02-25T14:47:18;5.50;67.60
4908;DHT22;64375;51.540;7.364;2023-02-25T14:50:04;5.70;68.90
4908;DHT22;64375;51.540;7.364;2023-02-25T14:52:46;5.90;70.20
4908;DHT22;64375;51.540;7.364;2023-02-25T14:58:48;5.80;69.50
4908;DHT22;64375;51.540;7.364;2023-02-25T15:01:53;6.00;72.70
4908;DHT22;64375;51.540;7.364;2023-02-25T15:05:14;6.10;70.60
4908;DHT22;64375;51.540;7.364;2023-02-25T15:08:09;5.90;68.40
4908;DHT22;64375;51.540;7.364;2023-02-25T15:20:18;5.80;70.20
4908;DHT22;64375;51.540;7.364;2023-02-25T15:23:04;6.00;69.90
4908;DHT22;64375;51.540;7.364;2023-02-25T15:25:49;5.90;69.70
4908;DHT22;64375;51.540;7.364;2023-02-25T15:28:40;5.90;71.30
4908;DHT22;64375;51.540;7.364;2023-02-25T15:31:34;6.00;71.60
4908;DHT22;64375;51.540;7.364;2023-02-25T15:43:39;5.50;69.50
4908;DHT22;64375;51.540;7.364;2023-02-25T15:46:43;5.50;67.60
4908;DHT22;64375;51.540;7.364;2023-02-25T15:49:33;5.40;67.30
4908;DHT22;64375;51.540;7.364;2023-02-25T15:55:14;5.30;67.20
4908;DHT22;64375;51.540;7.364;2023-02-25T15:57:46;5.40;67.50
4908;DHT22;64375;51.540;7.364;2023-02-25T16:03:44;5.50;68.20
4908;DHT22;64375;51.540;7.364;2023-02-25T16:06:17;5.40;68.30
4908;DHT22;64375;51.540;7.364;2023-02-25T16:08:52;5.30;66.10
4908;DHT22;64375;51.540;7.364;2023-02-25T16:11:27;5.20;65.10
4908;DHT22;64375;51.540;7.364;2023-02-25T16:14:13;5.20;67.00
4908;DHT22;64375;51.540;7.364;2023-02-25T16:16:48;5.30;66.20
4908;DHT22;64375;51.540;7.364;2023-02-25T16:19:25;5.10;65.80
4908;DHT22;64375;51.540;7.364;2023-02-25T16:21:59;5.20;66.70
4908;DHT22;64375;51.540;7.364;2023-02-25T16:24:28;5.10;65.80
4908;DHT22;64375;51.540;7.364;2023-02-25T16:26:59;5.00;66.20
4908;DHT22;64375;51.540;7.364;2023-02-25T16:29:47;4.90;67.60
4908;DHT22;64375;51.540;7.364;2023-02-25T16:32:33;5.10;69.00
4908;DHT22;64375;51.540;7.364;2023-02-25T16:35:08;5.20;69.80
4908;DHT22;64375;51.540;7.364;2023-02-25T16:37:44;5.50;69.90
4908;DHT22;64375;51.540;7.364;2023-02-25T16:40:24;5.70;68.20
4908;DHT22;64375;51.540;7.364;2023-02-25T16:42:54;5.40;67.00
4908;DHT22;64375;51.540;7.364;2023-02-25T16:45:38;5.30;66.80
4908;DHT22;64375;51.540;7.364;2023-02-25T16:48:14;5.20;68.40
4908;DHT22;64375;51.540;7.364;2023-02-25T16:50:48;5.30;67.90
4908;DHT22;64375;51.540;7.364;2023-02-25T16:53:19;5.20;67.80
4908;DHT22;64375;51.540;7.364;2023-02-25T16:55:48;5.30;67.90
4908;DHT22;64375;51.540;7.364;2023-02-25T16:58:22;5.20;67.90
4908;DHT22;64375;51.540;7.364;2023-02-25T17:00:52;5.10;67.70
4908;DHT22;64375;51.540;7.364;2023-02-25T17:03:25;5.10;68.10
4908;DHT22;64375;51.540;7.364;2023-02-25T17:06:05;5.20;69.10
4908;DHT22;64375;51.540;7.364;2023-02-25T17:08:43;5.10;68.80
4908;DHT22;64375;51.540;7.364;2023-02-25T17:11:15;5.20;67.60
4908;DHT22;64375;51.540;7.364;2023-02-25T17:13:45;5.00;68.80
4908;DHT22;64375;51.540;7.364;2023-02-25T17:16:23;4.90;68.50
4908;DHT22;64375;51.540;7.364;2023-02-25T17:19:12;4.90;69.60
4908;DHT22;64375;51.540;7.364;2023-02-25T17:21:53;5.00;69.10
4908;DHT22;64375;51.540;7.364;2023-02-25T17:24:29;5.00;69.30
4908;DHT22;64375;51.540;7.364;2023-02-25T17:26:59;5.00;69.20
4908;DHT22;64375;51.540;7.364;2023-02-25T17:29:35;5.10;70.70
4908;DHT22;64375;51.540;7.364;2023-02-25T17:32:19;5.20;70.30
4908;DHT22;64375;51.540;7.364;2023-02-25T17:35:06;5.30;69.10
4908;DHT22;64375;51.540;7.364;2023-02-25T17:37:36;5.40;69.60
4908;DHT22;64375;51.540;7.364;2023-02-25T17:40:08;5.30;69.60
4908;DHT22;64375;51.540;7.364;2023-02-25T17:42:37;5.30;69.90
4908;DHT22;64375;51.540;7.364;2023-02-25T17:45:41;5.40;72.60
4908;DHT22;64375;51.540;7.364;2023-02-25T17:48:21;5.70;74.30
4908;DHT22;64375;51.540;7.364;2023-02-25T17:50:55;5.80;69.50
4908;DHT22;64375;51.540;7.364;2023-02-25T17:53:53;5.70;70.10